Ana Sayfa
METAR-TAF:

METAR-TAF

Havaalanları :

Bryan, Teksas, Amerika Birleşik Devletleri

Enlem: 30-42-56N, Boylam: 096-19-53W, yükseklik: 112 m

Güncel hava durumu gözlemi

Rapor saat 01:55 UTC de 26 dakika önce yapıldı.
Rüzgar güneydan 5 kt
Sıcaklık 13°C
Nem 67%
Basınç 1014 hPa
Görüş mesafesi: 16.1 km
Açık gökyüzü

METAR: KCFD 190155Z AUTO 18005KT 10SM CLR 13/07 A2994 RMK AO2 T01280071

Saat: 19:21 (02:21 UTC)


TAF: eksik

4.000'den fazla havaalanı için hava durumu gözlemleri ve tahminleri (METAR ve TAF raporları).

Kullanılabilir istasyonlar harita üzerinde sarı ve kırmızı noktalarla gösterilir.

İstasyonun adını görmek için fareyi noktanın üzerinde gezdirin.

Sonrasında hava gözlem ve tahminlerini görmek için tıklayın.

Haritayı değiştirmek için: yaklaştırmak için siyah artı işaretli yeşil düğmeye ve uzaklaştırmak için de eksi işaretli düğmeye hızla tıklayın; bitişik haritalar için yeşil okları kullanın.


METAR-TAF: